createdAt,value
2023-05-08T00:00:30.117Z,100649.41
2023-05-08T00:02:57.663Z,100640.66
2023-05-08T00:05:25.105Z,100640.69
2023-05-08T00:07:53.797Z,100637.19
2023-05-08T00:10:20.909Z,100638.06
2023-05-08T00:12:48.490Z,100638.94
2023-05-08T00:15:17.933Z,100642.44
2023-05-08T00:17:45.004Z,100645.06
2023-05-08T00:20:13.048Z,100645.06
2023-05-08T00:22:43.850Z,100652.91
2023-05-08T00:25:11.330Z,100644.19
2023-05-08T00:27:38.867Z,100649.41
2023-05-08T00:30:08.205Z,100650.28
2023-05-08T00:32:36.407Z,100654.63
2023-05-08T00:35:05.047Z,100645.06
2023-05-08T00:37:33.446Z,100663.34
2023-05-08T00:40:01.165Z,100657.22
2023-05-08T00:42:29.377Z,100657.25
2023-05-08T00:44:58.220Z,100658.13
2023-05-08T00:47:25.371Z,100664.19
2023-05-08T00:49:53.897Z,100665.09
2023-05-08T00:52:22.956Z,100657.22
2023-05-08T00:54:50.346Z,100657.22
2023-05-08T00:57:19.004Z,100663.31
2023-05-08T00:59:54.403Z,100665.91
2023-05-08T01:02:22.145Z,100665.91
2023-05-08T01:04:50.227Z,100662.38
2023-05-08T01:07:18.320Z,100655.41
2023-05-08T01:09:47.000Z,100659.72
2023-05-08T01:12:36.010Z,100658.00
2023-05-08T01:15:08.767Z,100659.78
2023-05-08T01:17:50.308Z,100665.84
2023-05-08T01:20:27.537Z,100654.44
2023-05-08T01:23:18.444Z,100659.69
2023-05-08T01:26:03.478Z,100653.59
2023-05-08T01:28:46.792Z,100649.22
2023-05-08T01:35:22.514Z,100657.94
2023-05-08T01:38:11.028Z,100660.53
2023-05-08T01:40:55.126Z,100656.16
2023-05-08T01:43:55.919Z,100659.56
2023-05-08T01:46:28.059Z,100660.47
2023-05-08T01:49:08.641Z,100659.56
2023-05-08T01:51:50.006Z,100671.81
2023-05-08T01:54:23.342Z,100667.41
2023-05-08T01:56:54.747Z,100675.25
2023-05-08T01:59:25.044Z,100665.66
2023-05-08T02:01:57.519Z,100675.25
2023-05-08T02:04:26.545Z,100666.56
2023-05-08T02:06:56.557Z,100664.81
2023-05-08T02:09:25.539Z,100666.59
2023-05-08T02:11:55.808Z,100673.59
2023-05-08T02:14:24.437Z,100672.72
2023-05-08T02:16:53.227Z,100676.22
2023-05-08T02:19:23.934Z,100671.91
2023-05-08T02:21:52.341Z,100673.72
2023-05-08T02:24:24.574Z,100674.56
2023-05-08T02:26:55.669Z,100672.81
2023-05-08T02:29:25.348Z,100678.03
2023-05-08T02:31:56.529Z,100680.69
2023-05-08T02:34:24.902Z,100676.31
2023-05-08T02:36:54.376Z,100686.78
2023-05-08T02:39:27.201Z,100683.31
2023-05-08T02:42:01.220Z,100682.44
2023-05-08T02:44:28.980Z,100674.63
2023-05-08T02:47:07.526Z,100676.34
2023-05-08T02:49:51.158Z,100682.44
2023-05-08T02:52:25.704Z,100686.81
2023-05-08T02:55:04.884Z,100682.50
2023-05-08T02:58:01.638Z,100697.31
2023-05-08T03:00:35.705Z,100691.19
2023-05-08T03:03:21.727Z,100699.06
2023-05-08T03:05:54.551Z,100695.59
2023-05-08T03:08:31.056Z,100692.06
2023-05-08T03:11:03.461Z,100696.47
2023-05-08T03:13:35.147Z,100704.34
2023-05-08T03:16:05.872Z,100707.81
2023-05-08T03:18:37.266Z,100710.44
2023-05-08T03:21:07.120Z,100700.88
2023-05-08T03:23:37.484Z,100701.72
2023-05-08T03:26:08.223Z,100703.47
2023-05-08T03:28:37.485Z,100704.34
2023-05-08T03:31:07.795Z,100700.81
2023-05-08T03:33:39.363Z,100711.28
2023-05-08T03:36:08.136Z,100703.38
2023-05-08T03:38:36.454Z,100705.03
2023-05-08T03:41:10.499Z,100703.28
2023-05-08T03:43:39.014Z,100701.53
2023-05-08T03:46:09.306Z,100705.03
2023-05-08T03:48:39.308Z,100705.03
2023-05-08T03:51:06.528Z,100708.59
2023-05-08T03:53:35.567Z,100708.63
2023-05-08T03:56:03.171Z,100707.69
2023-05-08T03:58:49.198Z,100704.19
2023-05-08T04:01:29.422Z,100702.47
2023-05-08T04:04:43.997Z,100712.09
2023-05-08T04:07:25.038Z,100711.22
2023-05-08T04:10:09.936Z,100717.34
2023-05-08T04:12:57.191Z,100719.94
2023-05-08T04:15:30.136Z,100720.81
2023-05-08T04:18:05.326Z,100727.84
2023-05-08T04:20:33.895Z,100722.66
2023-05-08T04:23:02.585Z,100732.28
2023-05-08T04:25:34.013Z,100734.94
2023-05-08T04:28:02.966Z,100730.56
2023-05-08T04:30:30.597Z,100725.34
2023-05-08T04:32:59.824Z,100736.72
2023-05-08T04:35:27.319Z,100731.50
2023-05-08T04:37:55.516Z,100734.97
2023-05-08T04:40:22.874Z,100733.25
2023-05-08T04:42:50.255Z,100729.75
2023-05-08T04:45:18.369Z,100735.84
2023-05-08T04:47:45.932Z,100748.09
2023-05-08T04:50:13.284Z,100741.97
2023-05-08T04:52:40.690Z,100746.34
2023-05-08T04:55:08.844Z,100752.44
2023-05-08T04:57:36.406Z,100745.44
2023-05-08T05:00:06.420Z,100744.56
2023-05-08T05:02:33.630Z,100748.91
2023-05-08T05:05:02.511Z,100762.88
2023-05-08T05:07:32.282Z,100757.53
2023-05-08T05:10:00.858Z,100761.88
2023-05-08T05:12:30.204Z,100764.47
2023-05-08T05:14:57.504Z,100767.06
2023-05-08T05:17:24.699Z,100773.16
2023-05-08T05:19:53.448Z,100778.31
2023-05-08T05:22:21.202Z,100773.00
2023-05-08T05:24:50.620Z,100779.88
2023-05-08T05:27:19.909Z,100776.31
2023-05-08T05:29:49.515Z,100778.03
2023-05-08T05:32:16.910Z,100781.44
2023-05-08T05:34:44.513Z,100779.69
2023-05-08T05:37:11.906Z,100776.22
2023-05-08T05:39:39.222Z,100777.09
2023-05-08T05:42:07.940Z,100776.16
2023-05-08T05:44:37.144Z,100780.44
2023-05-08T05:47:10.433Z,100779.63
2023-05-08T05:49:43.342Z,100784.81
2023-05-08T05:52:11.018Z,100778.66
2023-05-08T05:54:38.625Z,100783.00
2023-05-08T05:57:06.898Z,100789.06
2023-05-08T05:59:35.385Z,100782.75
2023-05-08T06:02:02.877Z,100794.03
2023-05-08T06:04:30.506Z,100789.59
2023-05-08T06:06:58.444Z,100801.81
2023-05-08T06:09:25.681Z,100798.28
2023-05-08T06:11:53.146Z,100802.78
2023-05-08T06:14:21.590Z,100803.66
2023-05-08T06:16:48.735Z,100802.75
2023-05-08T06:19:16.245Z,100800.13
2023-05-08T06:21:45.704Z,100805.19
2023-05-08T06:24:13.078Z,100798.97
2023-05-08T06:26:40.507Z,100798.78
2023-05-08T06:29:16.220Z,100798.72
2023-05-08T06:31:43.609Z,100809.06
2023-05-08T06:34:11.213Z,100807.25
2023-05-08T06:36:39.554Z,100802.97
2023-05-08T06:39:07.829Z,100806.44
2023-05-08T06:41:34.977Z,100809.16
2023-05-08T06:44:02.318Z,100812.47
2023-05-08T06:46:30.346Z,100809.53
2023-05-08T06:48:57.753Z,100821.66
2023-05-08T06:51:25.315Z,100811.84
2023-05-08T06:53:53.761Z,100816.84
2023-05-08T06:56:27.384Z,100816.06
2023-05-08T06:59:05.011Z,100820.38
2023-05-08T07:01:40.803Z,100818.84
2023-05-08T07:04:09.142Z,100827.78
2023-05-08T07:06:36.622Z,100819.81
2023-05-08T07:09:05.144Z,100833.91
2023-05-08T07:11:33.673Z,100824.09
2023-05-08T07:14:01.174Z,100836.19
2023-05-08T07:16:28.563Z,100830.88
2023-05-08T07:18:56.981Z,100829.69
2023-05-08T07:21:24.500Z,100833.72
2023-05-08T07:23:54.151Z,100828.19
2023-05-08T07:26:22.210Z,100828.28
2023-05-08T07:28:51.263Z,100829.13
2023-05-08T07:31:18.943Z,100832.63
2023-05-08T07:33:47.384Z,100827.97
2023-05-08T07:36:14.917Z,100828.44
2023-05-08T07:38:42.383Z,100820.00
2023-05-08T07:41:12.170Z,100831.81
2023-05-08T07:43:40.939Z,100829.22
2023-05-08T07:46:16.233Z,100824.41
2023-05-08T07:48:44.173Z,100834.00
2023-05-08T07:51:12.430Z,100830.94
2023-05-08T07:53:39.831Z,100833.94
2023-05-08T07:56:12.984Z,100836.41
2023-05-08T07:58:40.860Z,100838.06
2023-05-08T08:01:09.470Z,100842.31
2023-05-08T08:03:38.946Z,100838.50
2023-05-08T08:06:06.349Z,100838.06
2023-05-08T08:08:34.216Z,100839.22
2023-05-08T08:11:03.703Z,100850.78
2023-05-08T08:13:31.801Z,100843.47
2023-05-08T08:16:01.653Z,100851.38
2023-05-08T08:18:31.533Z,100847.41
2023-05-08T08:20:58.743Z,100853.44
2023-05-08T08:23:26.302Z,100841.75
2023-05-08T08:25:53.860Z,100843.41
2023-05-08T08:28:21.033Z,100843.31
2023-05-08T08:30:48.881Z,100832.56
2023-05-08T08:33:18.792Z,100845.78
2023-05-08T08:35:46.531Z,100848.81
2023-05-08T08:38:13.966Z,100854.75
2023-05-08T08:40:42.504Z,100846.00
2023-05-08T08:43:10.986Z,100838.41
2023-05-08T08:45:39.638Z,100839.84
2023-05-08T08:48:12.391Z,100841.25
2023-05-08T08:50:46.747Z,100837.66
2023-05-08T08:53:20.514Z,100846.59
2023-05-08T08:55:50.708Z,100849.47
2023-05-08T08:58:40.863Z,100851.31
2023-05-08T09:01:18.299Z,100843.13
2023-05-08T09:03:47.702Z,100842.50
2023-05-08T09:06:17.882Z,100844.53
2023-05-08T09:08:45.724Z,100853.22
2023-05-08T09:11:14.322Z,100854.44
2023-05-08T09:13:41.997Z,100852.88
2023-05-08T09:16:09.301Z,100857.19
2023-05-08T09:18:36.968Z,100845.41
2023-05-08T09:21:06.945Z,100842.91
2023-05-08T09:23:38.407Z,100840.25
2023-05-08T09:26:05.761Z,100849.16
2023-05-08T09:28:33.267Z,100845.50
2023-05-08T09:31:01.932Z,100850.28
2023-05-08T09:33:30.581Z,100850.84
2023-05-08T09:35:58.579Z,100852.31
2023-05-08T09:38:39.683Z,100850.94
2023-05-08T09:41:17.203Z,100846.97
2023-05-08T09:43:45.611Z,100853.91
2023-05-08T09:46:24.002Z,100850.09
2023-05-08T09:48:59.246Z,100840.47
2023-05-08T09:51:28.327Z,100844.28
2023-05-08T09:53:57.535Z,100838.50
2023-05-08T09:56:40.051Z,100833.72
2023-05-08T09:59:30.418Z,100842.59
2023-05-08T10:01:58.750Z,100824.63
2023-05-08T10:04:33.626Z,100823.34
2023-05-08T10:07:02.390Z,100832.88
2023-05-08T10:09:42.718Z,100823.06
2023-05-08T10:12:17.233Z,100829.13
2023-05-08T10:14:46.818Z,100816.56
2023-05-08T10:17:20.742Z,100827.28
2023-05-08T10:19:48.912Z,100820.81
2023-05-08T10:22:20.110Z,100822.22
2023-05-08T10:24:50.368Z,100809.31
2023-05-08T10:27:35.061Z,100821.41
2023-05-08T10:30:07.152Z,100815.03
2023-05-08T10:32:44.503Z,100817.03
2023-05-08T10:35:12.595Z,100807.75
2023-05-08T10:37:42.657Z,100802.63
2023-05-08T10:40:11.579Z,100799.09
2023-05-08T10:42:41.586Z,100794.66
2023-05-08T10:45:11.092Z,100790.72
2023-05-08T10:47:59.610Z,100783.97
2023-05-08T10:50:35.707Z,100784.13
2023-05-08T10:53:26.316Z,100781.22
2023-05-08T10:55:56.347Z,100775.47
2023-05-08T10:58:52.856Z,100775.22
2023-05-08T11:01:22.329Z,100779.75
2023-05-08T11:03:52.969Z,100786.75
2023-05-08T11:06:46.619Z,100784.44
2023-05-08T11:09:22.312Z,100773.31
2023-05-08T11:12:16.859Z,100776.03
2023-05-08T11:14:54.202Z,100768.84
2023-05-08T11:17:25.888Z,100767.31
2023-05-08T11:20:04.526Z,100760.88
2023-05-08T11:22:33.375Z,100757.97
2023-05-08T11:25:10.023Z,100755.25
2023-05-08T11:27:41.613Z,100754.44
2023-05-08T11:30:33.568Z,100745.91
2023-05-08T11:33:07.376Z,100753.59
2023-05-08T11:35:54.187Z,100751.06
2023-05-08T11:38:32.995Z,100755.03
2023-05-08T11:41:11.511Z,100754.81
2023-05-08T11:43:47.946Z,100738.03
2023-05-08T11:46:17.625Z,100743.13
2023-05-08T11:48:45.332Z,100739.88
2023-05-08T11:51:13.902Z,100736.56
2023-05-08T11:53:44.812Z,100734.91
2023-05-08T11:56:12.375Z,100729.41
2023-05-08T11:58:39.795Z,100734.88
2023-05-08T12:01:08.385Z,100734.63
2023-05-08T12:03:36.057Z,100735.09
2023-05-08T12:06:04.897Z,100733.31
2023-05-08T12:08:32.224Z,100731.94
2023-05-08T12:11:00.302Z,100738.84
2023-05-08T12:13:30.131Z,100743.84
2023-05-08T12:16:01.438Z,100726.06
2023-05-08T12:18:30.822Z,100719.41
2023-05-08T12:21:00.174Z,100726.41
2023-05-08T12:23:34.430Z,100728.09
2023-05-08T12:26:02.509Z,100728.84
2023-05-08T12:28:30.138Z,100722.34
2023-05-08T12:31:04.793Z,100731.25
2023-05-08T12:33:34.145Z,100717.78
2023-05-08T12:36:03.525Z,100723.31
2023-05-08T12:38:36.111Z,100723.91
2023-05-08T12:41:04.884Z,100719.66
2023-05-08T12:43:34.945Z,100716.84
2023-05-08T12:46:04.430Z,100717.94
2023-05-08T12:48:32.267Z,100709.56
2023-05-08T12:51:04.645Z,100713.13
2023-05-08T12:53:33.739Z,100698.72
2023-05-08T12:56:05.352Z,100700.06
2023-05-08T12:58:35.086Z,100699.09
2023-05-08T13:01:10.408Z,100701.69
2023-05-08T13:03:38.778Z,100698.03
2023-05-08T13:06:07.741Z,100700.72
2023-05-08T13:08:39.517Z,100689.22
2023-05-08T13:11:07.925Z,100697.94
2023-05-08T13:13:38.391Z,100682.06
2023-05-08T13:16:08.562Z,100682.59
2023-05-08T13:18:37.051Z,100690.38
2023-05-08T13:21:04.385Z,100673.47
2023-05-08T13:23:31.710Z,100680.03
2023-05-08T13:26:00.269Z,100688.06
2023-05-08T13:28:27.610Z,100678.28
2023-05-08T13:30:54.732Z,100674.16
2023-05-08T13:33:22.108Z,100678.13
2023-05-08T13:35:49.489Z,100662.75
2023-05-08T13:38:16.960Z,100673.09
2023-05-08T13:40:46.544Z,100670.91
2023-05-08T13:43:15.937Z,100670.94
2023-05-08T13:45:43.518Z,100667.41
2023-05-08T13:48:11.829Z,100666.22
2023-05-08T13:50:39.348Z,100661.88
2023-05-08T13:53:06.829Z,100659.41
2023-05-08T13:55:34.371Z,100658.16
2023-05-08T13:58:07.350Z,100660.50
2023-05-08T14:00:34.982Z,100654.06
2023-05-08T14:03:02.505Z,100645.91
2023-05-08T14:05:29.958Z,100656.84
2023-05-08T14:07:57.403Z,100654.69
2023-05-08T14:10:24.914Z,100662.97
2023-05-08T14:12:52.337Z,100650.19
2023-05-08T14:15:19.787Z,100653.88
2023-05-08T14:17:46.879Z,100657.19
2023-05-08T14:20:14.424Z,100655.22
2023-05-08T14:22:41.686Z,100654.75
2023-05-08T14:25:10.434Z,100650.22
2023-05-08T14:27:38.723Z,100646.47
2023-05-08T14:30:08.344Z,100653.81
2023-05-08T14:32:35.646Z,100651.13
2023-05-08T14:35:10.657Z,100652.16
2023-05-08T14:37:38.101Z,100656.41
2023-05-08T14:40:06.600Z,100662.13
2023-05-08T14:42:34.210Z,100660.22
2023-05-08T14:45:01.702Z,100670.78
2023-05-08T14:47:29.168Z,100666.31
2023-05-08T14:50:04.850Z,100666.94
2023-05-08T14:52:32.381Z,100669.94
2023-05-08T14:55:02.458Z,100669.25
2023-05-08T14:57:31.086Z,100670.03
2023-05-08T14:59:59.592Z,100665.84
2023-05-08T15:02:27.131Z,100661.75
2023-05-08T15:04:54.601Z,100664.16
2023-05-08T15:07:21.937Z,100658.00
2023-05-08T15:09:49.512Z,100657.75
2023-05-08T15:12:23.082Z,100665.47
2023-05-08T15:14:50.486Z,100666.06
2023-05-08T15:17:17.814Z,100660.88
2023-05-08T15:19:46.341Z,100663.19
2023-05-08T15:22:14.564Z,100664.44
2023-05-08T15:24:42.007Z,100661.53
2023-05-08T15:27:10.306Z,100668.75
2023-05-08T15:29:40.134Z,100662.06
2023-05-08T15:32:07.749Z,100655.31
2023-05-08T15:34:35.129Z,100662.03
2023-05-08T15:37:02.709Z,100662.66
2023-05-08T15:39:30.024Z,100670.69
2023-05-08T15:41:59.588Z,100663.25
2023-05-08T15:44:37.675Z,100670.44
2023-05-08T15:47:14.034Z,100669.41
2023-05-08T15:49:41.445Z,100677.59
2023-05-08T15:52:08.668Z,100673.09
2023-05-08T15:54:43.712Z,100651.25
2023-05-08T15:57:11.045Z,100662.81
2023-05-08T15:59:38.339Z,100658.13
2023-05-08T16:02:06.146Z,100655.59
2023-05-08T16:04:35.326Z,100652.41
2023-05-08T16:07:04.702Z,100660.72
2023-05-08T16:09:31.841Z,100655.44
2023-05-08T16:11:59.885Z,100650.38
2023-05-08T16:14:27.539Z,100655.34
2023-05-08T16:16:54.630Z,100658.72
2023-05-08T16:19:21.873Z,100651.22
2023-05-08T16:21:51.282Z,100660.25
2023-05-08T16:24:18.878Z,100653.06
2023-05-08T16:26:46.597Z,100650.41
2023-05-08T16:29:14.203Z,100661.78
2023-05-08T16:31:41.784Z,100659.28
2023-05-08T16:34:10.321Z,100668.66
2023-05-08T16:36:39.873Z,100660.81
2023-05-08T16:39:08.121Z,100646.88
2023-05-08T16:41:35.463Z,100652.50
2023-05-08T16:44:03.923Z,100656.34
2023-05-08T16:46:33.465Z,100661.94
2023-05-08T16:49:00.869Z,100669.22
2023-05-08T16:51:34.410Z,100666.03
2023-05-08T16:54:02.172Z,100664.16
2023-05-08T16:56:29.440Z,100665.97
2023-05-08T16:58:58.783Z,100658.66
2023-05-08T17:01:26.206Z,100664.78
2023-05-08T17:03:53.458Z,100665.09
2023-05-08T17:06:21.063Z,100675.66
2023-05-08T17:08:49.383Z,100665.63
2023-05-08T17:11:16.939Z,100666.25
2023-05-08T17:13:46.553Z,100669.13
2023-05-08T17:16:13.823Z,100674.06
2023-05-08T17:18:42.322Z,100669.53
2023-05-08T17:21:09.804Z,100675.88
2023-05-08T17:23:37.222Z,100680.34
2023-05-08T17:26:04.704Z,100677.13
2023-05-08T17:28:32.409Z,100673.06
2023-05-08T17:31:00.118Z,100676.06
2023-05-08T17:33:27.786Z,100680.75
2023-05-08T17:36:05.460Z,100684.88
2023-05-08T17:38:32.939Z,100673.13
2023-05-08T17:41:00.788Z,100676.25
2023-05-08T17:43:28.986Z,100681.78
2023-05-08T17:45:57.403Z,100682.75
2023-05-08T17:48:25.040Z,100681.63
2023-05-08T17:50:53.292Z,100686.69
2023-05-08T17:53:20.621Z,100679.59
2023-05-08T17:55:52.270Z,100682.72
2023-05-08T17:58:19.452Z,100687.84
2023-05-08T18:00:46.858Z,100690.44
2023-05-08T18:03:14.585Z,100681.28
2023-05-08T18:05:44.112Z,100700.91
2023-05-08T18:08:14.681Z,100707.97
2023-05-08T18:10:41.861Z,100707.25
2023-05-08T18:13:09.411Z,100708.44
2023-05-08T18:15:40.707Z,100702.16
2023-05-08T18:18:08.523Z,100709.25
2023-05-08T18:20:35.795Z,100707.47
2023-05-08T18:23:02.936Z,100712.75
2023-05-08T18:25:31.425Z,100708.38
2023-05-08T18:28:00.935Z,100709.66
2023-05-08T18:30:28.164Z,100708.81
2023-05-08T18:32:56.001Z,100711.63
2023-05-08T18:35:24.612Z,100709.13
2023-05-08T18:37:53.540Z,100713.53
2023-05-08T18:40:21.182Z,100721.91
2023-05-08T18:42:50.747Z,100717.69
2023-05-08T18:45:20.221Z,100711.69
2023-05-08T18:47:48.451Z,100712.94
2023-05-08T18:50:16.251Z,100718.28
2023-05-08T18:52:44.267Z,100725.00
2023-05-08T18:55:12.916Z,100723.41
2023-05-08T18:57:40.404Z,100725.09
2023-05-08T19:00:09.932Z,100727.31
2023-05-08T19:02:41.193Z,100729.91
2023-05-08T19:05:08.974Z,100725.84
2023-05-08T19:07:37.954Z,100726.94
2023-05-08T19:10:06.915Z,100725.38
2023-05-08T19:12:35.425Z,100737.13
2023-05-08T19:15:02.985Z,100736.34
2023-05-08T19:17:30.420Z,100728.75
2023-05-08T19:19:57.937Z,100732.28
2023-05-08T19:22:26.778Z,100729.31
2023-05-08T19:25:01.991Z,100735.56
2023-05-08T19:27:29.469Z,100728.72
2023-05-08T19:30:02.988Z,100727.22
2023-05-08T19:32:33.421Z,100725.03
2023-05-08T19:35:03.116Z,100720.66
2023-05-08T19:37:30.428Z,100716.50
2023-05-08T19:39:58.405Z,100718.53
2023-05-08T19:42:26.249Z,100714.22
2023-05-08T19:44:54.503Z,100711.75
2023-05-08T19:47:21.978Z,100713.72
2023-05-08T19:49:50.166Z,100708.66
2023-05-08T19:52:17.348Z,100713.19
2023-05-08T19:54:46.063Z,100705.50
2023-05-08T19:57:13.678Z,100703.91
2023-05-08T19:59:41.289Z,100705.88
2023-05-08T20:02:08.833Z,100698.00
2023-05-08T20:04:57.327Z,100698.25
2023-05-08T20:07:25.708Z,100699.59
2023-05-08T20:09:53.280Z,100708.88
2023-05-08T20:12:20.553Z,100700.78
2023-05-08T20:14:49.150Z,100697.78
2023-05-08T20:17:16.368Z,100704.88
2023-05-08T20:19:43.645Z,100705.25
2023-05-08T20:22:12.339Z,100702.69
2023-05-08T20:24:45.674Z,100697.59
2023-05-08T20:27:14.141Z,100707.41
2023-05-08T20:29:41.714Z,100702.28
2023-05-08T20:32:13.941Z,100702.47
2023-05-08T20:34:41.791Z,100701.59
2023-05-08T20:37:16.312Z,100703.53
2023-05-08T20:39:44.161Z,100709.75
2023-05-08T20:42:13.049Z,100710.50
2023-05-08T20:44:41.765Z,100713.19
2023-05-08T20:47:09.075Z,100709.81
2023-05-08T20:49:38.248Z,100706.44
2023-05-08T20:52:12.208Z,100704.53
2023-05-08T20:54:39.794Z,100712.38
2023-05-08T20:57:08.527Z,100707.31
2023-05-08T20:59:37.155Z,100710.72
2023-05-08T21:02:04.593Z,100711.91
2023-05-08T21:04:32.153Z,100715.84
2023-05-08T21:06:59.546Z,100709.94
2023-05-08T21:09:29.072Z,100715.94
2023-05-08T21:11:56.456Z,100705.13
2023-05-08T21:14:25.028Z,100706.03
2023-05-08T21:16:54.303Z,100705.03
2023-05-08T21:19:22.404Z,100701.63
2023-05-08T21:21:51.954Z,100707.84
2023-05-08T21:24:19.993Z,100703.34
2023-05-08T21:26:48.336Z,100700.78
2023-05-08T21:29:15.841Z,100699.09
2023-05-08T21:31:44.304Z,100697.31
2023-05-08T21:34:12.621Z,100704.53
2023-05-08T21:36:39.905Z,100700.28
2023-05-08T21:39:07.539Z,100699.47
2023-05-08T21:41:34.739Z,100689.00
2023-05-08T21:44:02.285Z,100684.63
2023-05-08T21:46:29.409Z,100690.75
2023-05-08T21:49:02.805Z,100685.47
2023-05-08T21:51:30.356Z,100684.56
2023-05-08T21:53:58.033Z,100686.38
2023-05-08T21:56:26.731Z,100689.00
2023-05-08T21:58:54.187Z,100684.63
2023-05-08T22:01:21.892Z,100685.59
2023-05-08T22:03:55.513Z,100689.97
2023-05-08T22:06:24.391Z,100692.59
2023-05-08T22:08:51.659Z,100690.94
2023-05-08T22:11:19.269Z,100691.19
2023-05-08T22:13:46.699Z,100693.00
2023-05-08T22:16:14.128Z,100692.13
2023-05-08T22:18:41.708Z,100692.97
2023-05-08T22:21:10.193Z,100691.28
2023-05-08T22:23:37.472Z,100684.28
2023-05-08T22:26:04.995Z,100687.75
2023-05-08T22:28:34.517Z,100682.50
2023-05-08T22:31:01.929Z,100678.97
2023-05-08T22:33:34.207Z,100677.19
2023-05-08T22:36:01.560Z,100664.97
2023-05-08T22:38:28.860Z,100661.50
2023-05-08T22:40:57.746Z,100666.75
2023-05-08T22:43:25.343Z,100659.72
2023-05-08T22:45:53.531Z,100662.38
2023-05-08T22:48:26.944Z,100656.28
2023-05-08T22:50:54.419Z,100663.28
2023-05-08T22:53:21.870Z,100661.53
2023-05-08T22:55:50.348Z,100665.00
2023-05-08T22:58:17.859Z,100660.66
2023-05-08T23:00:51.047Z,100662.38
2023-05-08T23:03:18.301Z,100655.41
2023-05-08T23:05:49.219Z,100651.94
2023-05-08T23:08:16.856Z,100654.63
2023-05-08T23:10:44.486Z,100662.53
2023-05-08T23:13:11.766Z,100665.13
2023-05-08T23:15:39.267Z,100669.50
2023-05-08T23:18:06.971Z,100666.00
2023-05-08T23:20:38.025Z,100668.63
2023-05-08T23:23:19.022Z,100656.41
2023-05-08T23:25:46.467Z,100661.66
2023-05-08T23:28:13.863Z,100664.25
2023-05-08T23:30:41.372Z,100666.00
2023-05-08T23:33:08.976Z,100658.16
2023-05-08T23:35:38.544Z,100659.03
2023-05-08T23:38:05.746Z,100661.66
2023-05-08T23:40:33.186Z,100658.16
2023-05-08T23:43:00.680Z,100662.50
2023-05-08T23:45:28.868Z,100664.22
2023-05-08T23:47:57.153Z,100658.94
2023-05-08T23:50:24.602Z,100661.59
2023-05-08T23:52:52.067Z,100649.31
2023-05-08T23:55:20.696Z,100645.88
2023-05-08T23:57:50.023Z,100642.41
